Terminal Aerodrome Forecast
Issued by NWS Cleveland, OH

Home | Current Version | Previous Version | Text Only | Print | Product List | Glossary Off
Versions: 1 2 3 4 5 6 7 8 9 10 11 12 13 14 15 16 17

000
FTUS41 KCLE 242110 AAB
TAFERI
TAF AMD
KERI 242110Z 2421/2518 30010G18KT P6SM VCSH BKN070 OVC100
     FM250000 19010KT P6SM SCT040 BKN100
     FM251200 20010KT P6SM VCTS BKN035CB OVC120=

USA.gov is the U.S. government's official web portal to all federal, state and local government web resources and services.